Terminal Aerodrome Forecast
Issued by NWS

Home | Current Version | Previous Version | Text Only | Print | Product List | Glossary On
Versions: 1 2 3 4 5 6 7 8 9 10 11 12 13 14 15 16 17 18
000
FTUS46 KHNX 302341
TAFMCE
TAF
KMCE 302341Z 3100/3124 32004KT 4SM HZ SKC
     FM310400 VRB03KT 1SM BR BKN005
     FM310600 00000KT 1/4SM FG VV001
     FM312000 00000KT 1 1/2SM BR BKN004
     FM312200 VRB03KT 4SM HZ SKC=

USA.gov is the U.S. government's official web portal to all federal, state and local government web resources and services.